• Join FlightAware (Why Join?)
  • Login
  • US Flag 
01:58AM EDT


 

Airport Tracker/Info


-or-


 

Live Flight TrackerFlight Track Log ✈ THY2462 ✈ 22-Jun-2013 ✈ LTBA / IST - LTAF / ADA

Flight Track Log - Related Links

Times and Time Zones

All times are in EDT time to prevent confusion due to time zone crossing. See the THY2462 flight status page for this flight to view local times or setup timezone preferences in your user account.

Time Position Orientation Groundspeed Altitude Reporting Facility
EDT Latitude Longitude Course Direction KTS MPH feet Rate Location/Type
07:33AM 40.6730 29.3615 126° Southeast  Level Estimated
07:34AM 40.6120 29.4690 127° Southeast  Level Estimated
07:35AM 40.5508 29.5763 127° Southeast  Level Estimated
07:36AM 40.4895 29.6834 127° Southeast  Level Estimated
07:37AM 40.4282 29.7903 127° Southeast  Level Estimated
07:38AM 40.3667 29.8970 127° Southeast  Level Estimated
07:39AM 40.3051 30.0035 127° Southeast  Level Estimated
07:40AM 40.2435 30.1099 127° Southeast  Level Estimated
07:41AM 40.1817 30.2160 127° Southeast  Level Estimated
07:42AM 40.1199 30.3219 127° Southeast  Level Estimated
07:43AM 40.0579 30.4277 127° Southeast  Level Estimated
07:44AM 39.9959 30.5332 127° Southeast  Level Estimated
07:45AM 39.9337 30.6386 128° Southeast  Level Estimated
07:46AM 39.8715 30.7437 128° Southeast  Level Estimated
07:47AM 39.8092 30.8487 128° Southeast  Level Estimated
07:48AM 39.7467 30.9535 128° Southeast  Level Estimated
07:49AM 39.6842 31.0581 128° Southeast  Level Estimated
07:50AM 39.6216 31.1625 128° Southeast  Level Estimated
07:51AM 39.5589 31.2667 128° Southeast  Level Estimated
07:52AM 39.4961 31.3707 128° Southeast  Level Estimated
07:53AM 39.4332 31.4746 128° Southeast  Level Estimated
07:54AM 39.3702 31.5782 128° Southeast  Level Estimated
07:55AM 39.3072 31.6817 128° Southeast  Level Estimated
07:56AM 39.2440 31.7850 128° Southeast  Level Estimated
07:57AM 39.1807 31.8881 128° Southeast  Level Estimated
07:58AM 39.1174 31.9910 128° Southeast  Level Estimated
07:59AM 39.0539 32.0937 128° Southeast  Level Estimated
08:00AM 38.9904 32.1962 129° Southeast  Level Estimated
08:01AM 38.9268 32.2986 129° Southeast  Level Estimated
08:02AM 38.8631 32.4007 129° Southeast  Level Estimated
08:03AM 38.7993 32.5027 129° Southeast  Level Estimated
08:04AM 38.7354 32.6045 129° Southeast  Level Estimated
08:05AM 38.6714 32.7062 129° Southeast  Level Estimated
08:06AM 38.6073 32.8076 129° Southeast  Level Estimated
08:07AM 38.5432 32.9089 129° Southeast  Level Estimated
08:08AM 38.4790 33.0099 129° Southeast  Level Estimated
08:09AM 38.4146 33.1108 129° Southeast  Level Estimated
08:10AM 38.3502 33.2116 129° Southeast  Level Estimated
08:11AM 38.2857 33.3121 129° Southeast  Level Estimated
08:12AM 38.2211 33.4124 129° Southeast  Level Estimated
08:13AM 38.1565 33.5126 129° Southeast  Level Estimated
08:14AM 38.0917 33.6126 129° Southeast  Level Estimated
08:15AM 38.0269 33.7125 129° Southeast  Level Estimated
08:16AM 37.9620 33.8121 130° Southeast  Level Estimated
08:17AM 37.8970 33.9116 130° Southeast  Level Estimated
08:18AM 37.8319 34.0109 130° Southeast  Level Estimated
08:19AM 37.7667 34.1100 130° Southeast  Level Estimated
08:20AM 37.7015 34.2090 130° Southeast  Level Estimated
08:21AM 37.6361 34.3078 130° Southeast  Level Estimated
08:22AM 37.5707 34.4064 130° Southeast  Level Estimated
08:23AM 37.5052 34.5048 130° Southeast  Level Estimated
08:24AM 37.4396 34.6031 130° Southeast  Level Estimated
08:25AM 37.3740 34.7011 130° Southeast  Level Estimated
08:26AM 37.3082 34.7990 130° Southeast  Level Estimated
08:27AM 37.2424 34.8968 130° Southeast  Level Estimated
08:28AM 37.1765 34.9944 130° Southeast  Level Estimated
08:29AM 37.1105 35.0918 130° Southeast  Level Estimated
08:30AM 37.0444 35.1890 130° Southeast  Level Estimated
08:31AM 36.9822 35.2804 130° Southeast  Level Estimated
08:32AM 36.9822 35.2804 202° Southwest  Level Estimated
08:33AM 36.9822 35.2804 202° Southwest  Level Estimated
08:34AM 36.9822 35.2804 202° Southwest  Level Estimated
08:35AM 36.9822 35.2804 202° Southwest  Level Estimated
08:36AM 36.9822 35.2804 202° Southwest  Level Estimated
08:37AM 36.9822 35.2804 202° Southwest  Level Estimated
08:38AM 36.9822 35.2804 202° Southwest  Level Estimated
08:39AM 36.9822 35.2804 202° Southwest  Level Estimated
08:40AM 36.9822 35.2804 202° Southwest  Level Estimated
08:41AM 36.9822 35.2804 202° Southwest  Level Estimated
08:42AM 36.9822 35.2804 202° Southwest  Level Estimated
08:43AM 36.9822 35.2804 202° Southwest  Level Estimated
08:44AM 36.9822 35.2804 202° Southwest  Level Estimated
08:45AM 36.9822 35.2804 202° Southwest  Level Estimated
08:46AM 36.9822 35.2804 202° Southwest  Level Estimated
08:47AM 36.9822 35.2804 202° Southwest  Level Estimated